createdAt,value
2022-08-10T00:01:54.328Z,59.51
2022-08-10T00:04:24.719Z,59.75
2022-08-10T00:06:53.445Z,60.12
2022-08-10T00:09:20.716Z,60.06
2022-08-10T00:11:47.473Z,60.09
2022-08-10T00:14:14.238Z,60.15
2022-08-10T00:16:40.945Z,60.37
2022-08-10T00:19:07.593Z,60.53
2022-08-10T00:21:34.345Z,60.65
2022-08-10T00:24:01.076Z,60.66
2022-08-10T00:27:49.889Z,60.78
2022-08-10T00:29:14.483Z,61.07
2022-08-10T00:31:58.615Z,61.13
2022-08-10T00:34:30.697Z,61.19
2022-08-10T00:36:58.154Z,61.14
2022-08-10T00:39:26.327Z,61.32
2022-08-10T00:42:06.627Z,61.51
2022-08-10T00:44:40.060Z,61.51
2022-08-10T00:47:17.455Z,61.73
2022-08-10T00:49:54.733Z,61.74
2022-08-10T00:52:22.144Z,61.84
2022-08-10T00:54:49.021Z,62.02
2022-08-10T00:57:18.590Z,61.94
2022-08-10T00:59:57.863Z,61.93
2022-08-10T01:02:32.625Z,61.70
2022-08-10T01:05:03.079Z,61.76
2022-08-10T01:07:38.039Z,61.32
2022-08-10T01:10:28.434Z,61.41
2022-08-10T01:13:16.829Z,61.18
2022-08-10T01:16:05.410Z,61.12
2022-08-10T01:18:44.433Z,60.91
2022-08-10T01:21:34.368Z,61.12
2022-08-10T01:24:20.441Z,61.11
2022-08-10T01:27:07.279Z,60.90
2022-08-10T01:30:03.130Z,61.01
2022-08-10T01:32:42.285Z,60.88
2022-08-10T01:35:22.152Z,60.91
2022-08-10T01:37:58.986Z,61.04
2022-08-10T01:40:28.401Z,61.28
2022-08-10T01:42:59.732Z,61.32
2022-08-10T01:45:45.351Z,61.35
2022-08-10T01:48:32.016Z,61.49
2022-08-10T01:51:14.565Z,61.47
2022-08-10T01:53:52.092Z,61.82
2022-08-10T01:56:22.460Z,61.83
2022-08-10T01:58:52.612Z,61.85
2022-08-10T02:01:23.917Z,61.96
2022-08-10T02:04:05.053Z,62.12
2022-08-10T02:06:36.808Z,61.90
2022-08-10T02:09:07.127Z,62.10
2022-08-10T02:12:06.252Z,62.37
2022-08-10T02:14:33.940Z,62.47
2022-08-10T02:17:07.950Z,62.58
2022-08-10T02:19:38.457Z,62.35
2022-08-10T02:22:36.729Z,62.43
2022-08-10T02:24:57.672Z,62.39
2022-08-10T02:27:26.873Z,62.30
2022-08-10T02:29:54.864Z,62.24
2022-08-10T02:32:38.294Z,62.18
2022-08-10T02:35:13.202Z,62.19
2022-08-10T02:37:51.354Z,62.45
2022-08-10T02:45:16.175Z,62.24
2022-08-10T02:45:24.706Z,62.34
2022-08-10T02:46:05.239Z,62.43
2022-08-10T02:48:42.373Z,62.73
2022-08-10T02:51:16.227Z,62.63
2022-08-10T02:53:54.632Z,62.67
2022-08-10T02:56:35.684Z,62.45
2022-08-10T02:59:11.817Z,62.49
2022-08-10T03:01:44.528Z,62.60
2022-08-10T03:04:57.859Z,62.25
2022-08-10T03:07:12.289Z,62.28
2022-08-10T03:09:41.248Z,62.32
2022-08-10T03:12:35.110Z,62.14
2022-08-10T03:15:00.007Z,62.11
2022-08-10T03:17:27.808Z,62.08
2022-08-10T03:20:33.957Z,62.21
2022-08-10T03:22:44.828Z,62.18
2022-08-10T03:25:13.820Z,62.36
2022-08-10T03:27:42.710Z,62.48
2022-08-10T03:30:28.171Z,62.75
2022-08-10T03:32:58.992Z,62.49
2022-08-10T03:35:26.407Z,62.74
2022-08-10T03:37:59.222Z,62.86
2022-08-10T03:40:45.454Z,62.99
2022-08-10T03:43:19.344Z,63.07
2022-08-10T03:45:55.345Z,63.17
2022-08-10T03:48:32.248Z,63.10
2022-08-10T03:51:12.083Z,63.17
2022-08-10T03:54:03.518Z,63.22
2022-08-10T03:56:28.562Z,63.11
2022-08-10T03:58:58.228Z,62.90
2022-08-10T04:02:41.930Z,62.95
2022-08-10T04:04:15.472Z,62.95
2022-08-10T04:06:45.135Z,62.99
2022-08-10T04:09:11.807Z,63.01
2022-08-10T04:11:40.771Z,63.04
2022-08-10T04:14:38.370Z,63.13
2022-08-10T04:16:55.173Z,62.98
2022-08-10T04:19:23.202Z,63.12
2022-08-10T04:22:00.127Z,63.10
2022-08-10T04:24:31.927Z,63.10
2022-08-10T04:27:02.476Z,63.02
2022-08-10T04:29:29.426Z,63.11
2022-08-10T04:31:56.088Z,63.19
2022-08-10T04:34:26.154Z,63.30
2022-08-10T04:36:58.002Z,63.29
2022-08-10T04:39:25.126Z,63.30
2022-08-10T04:41:52.266Z,63.61
2022-08-10T04:44:19.011Z,63.38
2022-08-10T04:46:56.217Z,63.38
2022-08-10T04:49:55.549Z,63.44
2022-08-10T04:52:12.463Z,63.63
2022-08-10T04:54:39.119Z,63.32
2022-08-10T04:57:06.430Z,63.52
2022-08-10T04:59:34.167Z,63.65
2022-08-10T05:02:29.770Z,63.77
2022-08-10T05:04:47.518Z,63.61
2022-08-10T05:07:18.455Z,63.65
2022-08-10T05:10:03.209Z,64.04
2022-08-10T05:12:38.839Z,63.83
2022-08-10T05:15:13.198Z,64.08
2022-08-10T05:18:08.134Z,63.85
2022-08-10T05:20:29.143Z,64.04
2022-08-10T05:22:55.777Z,64.21
2022-08-10T05:25:22.433Z,64.30
2022-08-10T05:27:49.248Z,64.21
2022-08-10T05:30:18.803Z,64.14
2022-08-10T05:32:56.411Z,64.32
2022-08-10T05:35:27.357Z,64.42
2022-08-10T05:38:13.074Z,64.46
2022-08-10T05:40:47.465Z,64.49
2022-08-10T05:43:19.400Z,64.62
2022-08-10T05:46:17.341Z,64.54
2022-08-10T05:48:55.715Z,64.56
2022-08-10T05:51:22.578Z,64.63
2022-08-10T05:54:01.105Z,64.66
2022-08-10T05:56:56.843Z,64.56
2022-08-10T06:00:33.503Z,64.57
2022-08-10T06:02:31.283Z,64.69
2022-08-10T06:04:58.664Z,64.58
2022-08-10T06:07:30.058Z,64.65
2022-08-10T06:10:00.197Z,64.65
2022-08-10T06:12:36.427Z,64.62
2022-08-10T06:15:21.721Z,64.71
2022-08-10T06:18:05.089Z,64.61
2022-08-10T06:20:35.969Z,64.46
2022-08-10T06:23:04.427Z,64.66
2022-08-10T06:26:08.574Z,64.65
2022-08-10T06:28:19.963Z,64.65
2022-08-10T06:30:49.369Z,64.65
2022-08-10T06:33:18.735Z,64.64
2022-08-10T06:35:48.499Z,64.91
2022-08-10T06:38:16.873Z,64.86
2022-08-10T06:40:47.087Z,64.96
2022-08-10T06:43:17.120Z,65.13
2022-08-10T06:46:07.814Z,65.00
2022-08-10T06:48:45.627Z,64.95
2022-08-10T06:51:33.774Z,64.88
2022-08-10T06:54:04.707Z,64.70
2022-08-10T06:56:46.848Z,64.67
2022-08-10T06:59:30.567Z,64.52
2022-08-10T07:02:04.900Z,64.36
2022-08-10T07:04:46.493Z,64.37
2022-08-10T07:07:19.632Z,64.60
2022-08-10T07:09:49.328Z,64.52
2022-08-10T07:12:19.687Z,64.73
2022-08-10T07:14:48.944Z,64.58
2022-08-10T07:17:26.070Z,64.53
2022-08-10T07:19:55.945Z,64.54
2022-08-10T07:23:01.649Z,64.41
2022-08-10T07:25:17.277Z,64.37
2022-08-10T07:27:59.895Z,64.50
2022-08-10T07:30:36.009Z,64.19
2022-08-10T07:33:04.807Z,64.39
2022-08-10T07:35:42.322Z,64.48
2022-08-10T07:38:17.826Z,64.11
2022-08-10T07:40:45.634Z,64.06
2022-08-10T07:43:13.679Z,64.06
2022-08-10T07:45:40.832Z,63.99
2022-08-10T07:48:13.826Z,63.86
2022-08-10T07:50:42.608Z,63.58
2022-08-10T07:53:13.568Z,63.81
2022-08-10T07:56:02.073Z,63.54
2022-08-10T07:58:34.221Z,64.17
2022-08-10T08:01:01.714Z,63.82
2022-08-10T08:03:30.907Z,63.79
2022-08-10T08:06:04.985Z,63.80
2022-08-10T08:08:37.988Z,64.06
2022-08-10T08:11:06.291Z,63.99
2022-08-10T08:13:34.676Z,63.42
2022-08-10T08:16:19.418Z,62.74
2022-08-10T08:18:58.158Z,60.93
2022-08-10T08:24:10.071Z,59.50
2022-08-10T08:24:33.677Z,58.26
2022-08-10T08:27:05.719Z,55.77
2022-08-10T08:29:34.136Z,56.10
2022-08-10T08:32:03.844Z,52.21
2022-08-10T08:34:32.728Z,48.18
2022-08-10T08:37:01.229Z,45.65
2022-08-10T08:39:28.961Z,43.32
2022-08-10T08:42:26.488Z,41.66
2022-08-10T08:45:15.804Z,39.05
2022-08-10T08:48:19.484Z,37.84
2022-08-10T08:50:57.144Z,36.39
2022-08-10T08:54:02.899Z,35.23
2022-08-10T08:56:55.364Z,34.24
2022-08-10T08:59:40.474Z,33.34
2022-08-10T09:02:33.916Z,32.97
2022-08-10T09:05:16.823Z,32.23
2022-08-10T09:08:14.591Z,31.83
2022-08-10T09:10:50.582Z,31.22
2022-08-10T09:13:40.442Z,30.57
2022-08-10T09:16:44.216Z,29.98
2022-08-10T09:19:35.170Z,29.40
2022-08-10T09:22:37.370Z,29.01
2022-08-10T09:25:18.884Z,31.05
2022-08-10T09:27:59.871Z,29.61
2022-08-10T09:30:38.511Z,30.61
2022-08-10T09:36:22.105Z,29.13
2022-08-10T09:36:33.025Z,28.55
2022-08-10T09:40:12.229Z,28.54
2022-08-10T09:42:16.163Z,28.38
2022-08-10T09:44:57.479Z,27.53
2022-08-10T09:47:58.615Z,27.72
2022-08-10T09:51:22.849Z,27.33
2022-08-10T09:53:56.243Z,27.02
2022-08-10T09:56:41.003Z,27.24
2022-08-10T10:00:00.496Z,26.94
2022-08-10T10:02:31.318Z,27.46
2022-08-10T10:05:24.851Z,26.93
2022-08-10T10:08:01.189Z,26.74
2022-08-10T10:10:41.150Z,26.94
2022-08-10T10:14:01.464Z,26.22
2022-08-10T10:16:35.933Z,26.89
2022-08-10T10:19:24.805Z,26.86
2022-08-10T10:22:32.680Z,26.44
2022-08-10T10:25:22.237Z,26.15
2022-08-10T10:28:05.916Z,26.05
2022-08-10T10:30:39.075Z,26.33
2022-08-10T10:33:33.048Z,26.59
2022-08-10T10:36:02.088Z,26.65
2022-08-10T10:38:40.265Z,27.01
2022-08-10T10:41:57.327Z,26.66
2022-08-10T10:44:46.581Z,27.32
2022-08-10T10:47:46.364Z,27.16
2022-08-10T10:50:19.659Z,27.24
2022-08-10T10:52:55.578Z,27.39
2022-08-10T10:56:14.714Z,27.80
2022-08-10T10:59:53.501Z,28.45
2022-08-10T11:02:46.835Z,29.06
2022-08-10T11:05:48.838Z,29.95
2022-08-10T11:08:36.376Z,30.40
2022-08-10T11:11:20.466Z,30.48
2022-08-10T11:14:29.169Z,31.44
2022-08-10T11:17:23.212Z,31.24
2022-08-10T11:20:17.989Z,32.35
2022-08-10T11:23:14.776Z,33.26
2022-08-10T11:25:44.835Z,33.63
2022-08-10T11:28:36.836Z,34.56
2022-08-10T11:31:19.764Z,34.83
2022-08-10T11:34:48.474Z,35.51
2022-08-10T11:38:31.958Z,36.52
2022-08-10T11:40:57.028Z,36.94
2022-08-10T11:43:28.919Z,37.27
2022-08-10T11:46:40.552Z,37.31
2022-08-10T11:49:14.016Z,37.60
2022-08-10T11:51:58.071Z,37.95
2022-08-10T11:54:33.627Z,37.90
2022-08-10T11:57:02.968Z,37.13
2022-08-10T11:59:57.922Z,37.71
2022-08-10T12:02:34.219Z,37.37
2022-08-10T12:05:07.735Z,37.94
2022-08-10T12:09:24.013Z,37.74
2022-08-10T12:10:27.784Z,38.22
2022-08-10T12:13:18.926Z,38.44
2022-08-10T12:16:05.581Z,38.48
2022-08-10T12:19:04.470Z,38.72
2022-08-10T12:21:39.212Z,38.91
2022-08-10T12:24:33.873Z,39.11
2022-08-10T12:27:17.020Z,38.80
2022-08-10T12:29:49.085Z,39.39
2022-08-10T12:32:31.032Z,38.13
2022-08-10T12:35:00.734Z,38.15
2022-08-10T12:37:31.677Z,38.25
2022-08-10T12:40:35.055Z,38.41
2022-08-10T12:44:03.923Z,37.88
2022-08-10T12:46:06.830Z,37.39
2022-08-10T12:48:50.378Z,37.06
2022-08-10T12:51:46.871Z,36.97
2022-08-10T12:54:22.657Z,37.18
2022-08-10T12:57:03.708Z,37.36
2022-08-10T12:59:32.320Z,37.28
2022-08-10T13:02:09.474Z,37.45
2022-08-10T13:04:40.374Z,37.46
2022-08-10T13:07:09.219Z,37.84
2022-08-10T13:09:56.409Z,37.90
2022-08-10T13:12:37.912Z,37.67
2022-08-10T13:15:50.009Z,37.24
2022-08-10T13:18:26.295Z,36.83
2022-08-10T13:20:55.990Z,36.52
2022-08-10T13:23:27.116Z,36.94
2022-08-10T13:25:56.999Z,36.30
2022-08-10T13:28:39.964Z,36.15
2022-08-10T13:31:11.471Z,36.17
2022-08-10T13:34:36.543Z,35.80
2022-08-10T13:36:40.396Z,35.52
2022-08-10T13:39:12.239Z,35.79
2022-08-10T13:41:42.507Z,35.65
2022-08-10T13:44:12.985Z,36.30
2022-08-10T13:46:42.368Z,35.76
2022-08-10T13:49:11.254Z,35.74
2022-08-10T13:51:54.598Z,35.54
2022-08-10T13:54:38.850Z,35.48
2022-08-10T13:57:06.851Z,35.55
2022-08-10T14:00:34.291Z,35.44
2022-08-10T14:02:36.617Z,35.71
2022-08-10T14:05:05.840Z,35.39
2022-08-10T14:07:37.772Z,35.59
2022-08-10T14:10:13.625Z,35.58
2022-08-10T14:12:46.438Z,35.50
2022-08-10T14:15:29.366Z,35.45
2022-08-10T14:17:58.920Z,35.32
2022-08-10T14:20:44.705Z,35.14
2022-08-10T14:23:15.107Z,35.11
2022-08-10T14:25:59.307Z,35.27
2022-08-10T14:28:42.813Z,34.82
2022-08-10T14:31:19.802Z,34.71
2022-08-10T14:33:54.643Z,34.21
2022-08-10T14:36:42.581Z,34.11
2022-08-10T14:39:14.878Z,34.24
2022-08-10T14:42:01.083Z,34.28
2022-08-10T14:44:31.438Z,34.03
2022-08-10T14:47:20.102Z,33.86
2022-08-10T14:49:57.081Z,33.74
2022-08-10T14:52:27.632Z,33.15
2022-08-10T14:54:56.659Z,32.93
2022-08-10T14:57:24.595Z,33.15
2022-08-10T15:00:29.316Z,33.43
2022-08-10T15:03:03.685Z,33.32
2022-08-10T15:05:41.692Z,33.14
2022-08-10T15:08:10.039Z,33.38
2022-08-10T15:10:38.473Z,33.26
2022-08-10T15:13:33.873Z,33.32
2022-08-10T15:16:12.491Z,33.37
2022-08-10T15:18:57.964Z,33.35
2022-08-10T15:21:42.642Z,33.14
2022-08-10T15:24:15.542Z,33.14
2022-08-10T15:26:57.508Z,32.93
2022-08-10T15:29:26.568Z,32.69
2022-08-10T15:32:12.559Z,32.66
2022-08-10T15:34:58.693Z,32.93
2022-08-10T15:37:37.053Z,33.09
2022-08-10T15:40:31.088Z,32.65
2022-08-10T15:43:20.272Z,32.33
2022-08-10T15:46:11.837Z,32.56
2022-08-10T15:48:50.061Z,32.77
2022-08-10T15:51:23.028Z,32.76
2022-08-10T15:54:06.739Z,33.08
2022-08-10T15:56:51.319Z,32.85
2022-08-10T15:59:31.185Z,32.73
2022-08-10T16:02:16.243Z,33.22
2022-08-10T16:05:06.508Z,33.21
2022-08-10T16:08:02.718Z,33.33
2022-08-10T16:10:39.957Z,33.32
2022-08-10T16:13:50.932Z,32.98
2022-08-10T16:15:59.025Z,33.18
2022-08-10T16:18:31.694Z,33.26
2022-08-10T16:21:01.214Z,33.69
2022-08-10T16:23:35.022Z,33.65
2022-08-10T16:26:25.451Z,33.52
2022-08-10T16:29:03.933Z,33.13
2022-08-10T16:31:32.776Z,33.51
2022-08-10T16:34:03.305Z,33.02
2022-08-10T16:36:41.972Z,33.60
2022-08-10T16:39:17.987Z,33.26
2022-08-10T16:42:20.599Z,33.27
2022-08-10T16:44:54.806Z,33.67
2022-08-10T16:47:27.348Z,33.63
2022-08-10T16:49:58.292Z,33.81
2022-08-10T16:52:27.323Z,33.97
2022-08-10T16:55:23.739Z,33.77
2022-08-10T16:57:55.046Z,33.57
2022-08-10T17:00:23.356Z,33.36
2022-08-10T17:02:54.766Z,33.53
2022-08-10T17:06:01.386Z,33.71
2022-08-10T17:08:14.664Z,33.76
2022-08-10T17:10:42.705Z,33.33
2022-08-10T17:13:11.839Z,33.37
2022-08-10T17:15:47.084Z,33.12
2022-08-10T17:18:27.679Z,33.41
2022-08-10T17:21:00.065Z,33.27
2022-08-10T17:23:33.782Z,33.68
2022-08-10T17:26:12.457Z,33.34
2022-08-10T17:28:49.395Z,33.69
2022-08-10T17:31:54.815Z,33.66
2022-08-10T17:34:29.388Z,33.61
2022-08-10T17:37:04.389Z,33.70
2022-08-10T17:39:41.130Z,33.55
2022-08-10T17:42:08.740Z,34.03
2022-08-10T17:44:40.902Z,34.17
2022-08-10T17:47:10.611Z,34.02
2022-08-10T17:49:39.989Z,34.06
2022-08-10T17:52:10.632Z,33.57
2022-08-10T17:54:45.739Z,33.77
2022-08-10T17:57:18.850Z,34.10
2022-08-10T17:59:46.910Z,34.08
2022-08-10T18:02:18.384Z,34.12
2022-08-10T18:04:51.980Z,34.64
2022-08-10T18:07:22.967Z,34.84
2022-08-10T18:09:55.041Z,35.04
2022-08-10T18:12:39.416Z,35.06
2022-08-10T18:15:13.574Z,35.37
2022-08-10T18:17:44.852Z,35.66
2022-08-10T18:20:13.133Z,35.74
2022-08-10T18:22:45.359Z,35.52
2022-08-10T18:25:26.569Z,36.31
2022-08-10T18:28:04.585Z,36.42
2022-08-10T18:30:36.276Z,36.86
2022-08-10T18:33:04.601Z,37.00
2022-08-10T18:35:34.732Z,37.53
2022-08-10T18:38:03.960Z,37.87
2022-08-10T18:40:35.615Z,38.36
2022-08-10T18:44:05.996Z,38.69
2022-08-10T18:45:58.857Z,38.70
2022-08-10T18:48:34.392Z,38.97
2022-08-10T18:51:05.943Z,39.61
2022-08-10T18:53:48.226Z,40.14
2022-08-10T18:56:17.755Z,40.41
2022-08-10T18:59:22.004Z,40.70
2022-08-10T19:02:10.428Z,41.26
2022-08-10T19:04:42.871Z,41.48
2022-08-10T19:07:24.882Z,41.80
2022-08-10T19:10:12.455Z,41.75
2022-08-10T19:12:49.020Z,42.20
2022-08-10T19:15:29.839Z,42.36
2022-08-10T19:18:11.963Z,42.66
2022-08-10T19:20:50.614Z,42.81
2022-08-10T19:23:37.514Z,43.04
2022-08-10T19:26:41.837Z,42.94
2022-08-10T19:30:08.639Z,43.15
2022-08-10T19:32:41.476Z,43.44
2022-08-10T19:35:30.036Z,43.41
2022-08-10T19:38:00.709Z,43.69
2022-08-10T19:40:43.543Z,43.72
2022-08-10T19:44:00.251Z,43.77
2022-08-10T19:46:41.031Z,43.97
2022-08-10T19:49:18.616Z,44.40
2022-08-10T19:52:10.895Z,44.31
2022-08-10T19:54:41.661Z,44.87
2022-08-10T19:57:13.596Z,44.93
2022-08-10T20:00:15.877Z,44.98
2022-08-10T20:02:59.709Z,45.33
2022-08-10T20:05:30.098Z,44.74
2022-08-10T20:08:12.880Z,45.36
2022-08-10T20:11:01.171Z,46.05
2022-08-10T20:13:45.758Z,46.12
2022-08-10T20:16:21.068Z,46.16
2022-08-10T20:18:51.569Z,46.37
2022-08-10T20:21:43.346Z,46.77
2022-08-10T20:24:11.555Z,46.13
2022-08-10T20:26:50.104Z,46.87
2022-08-10T20:29:56.909Z,46.71
2022-08-10T20:32:17.594Z,46.96
2022-08-10T20:34:49.445Z,47.58
2022-08-10T20:38:02.674Z,47.37
2022-08-10T20:40:34.424Z,47.63
2022-08-10T20:43:00.987Z,47.81
2022-08-10T20:45:51.923Z,48.32
2022-08-10T20:48:36.355Z,48.87
2022-08-10T20:51:06.879Z,48.78
2022-08-10T20:53:39.276Z,48.54
2022-08-10T20:56:10.298Z,49.33
2022-08-10T20:58:55.198Z,49.22
2022-08-10T21:01:23.046Z,49.72
2022-08-10T21:04:18.932Z,49.96
2022-08-10T21:07:06.448Z,49.85
2022-08-10T21:10:10.772Z,49.84
2022-08-10T21:12:44.211Z,49.66
2022-08-10T21:15:46.067Z,50.31
2022-08-10T21:18:43.971Z,50.38
2022-08-10T21:21:44.737Z,50.71
2022-08-10T21:24:35.793Z,50.66
2022-08-10T21:27:33.787Z,51.16
2022-08-10T21:30:30.658Z,51.10
2022-08-10T21:33:02.651Z,51.49
2022-08-10T21:38:34.120Z,51.99
2022-08-10T21:41:57.612Z,52.29
2022-08-10T21:44:49.961Z,51.99
2022-08-10T21:48:16.798Z,52.27
2022-08-10T21:51:14.647Z,52.25
2022-08-10T21:54:16.025Z,52.67
2022-08-10T21:58:00.265Z,52.71
2022-08-10T22:00:45.815Z,52.74
2022-08-10T22:03:39.918Z,52.95
2022-08-10T22:06:28.156Z,53.12
2022-08-10T22:09:24.709Z,53.55
2022-08-10T22:12:25.015Z,53.51
2022-08-10T22:16:03.161Z,53.91
2022-08-10T22:18:35.826Z,53.78
2022-08-10T22:21:45.920Z,53.99
2022-08-10T22:24:41.457Z,54.63
2022-08-10T22:27:50.665Z,54.49
2022-08-10T22:30:37.974Z,54.83
2022-08-10T22:31:27.736Z,51.92
2022-08-10T22:33:35.412Z,54.91
2022-08-10T22:36:54.080Z,55.03
2022-08-10T22:40:12.102Z,55.15
2022-08-10T22:43:09.843Z,55.17
2022-08-10T22:46:03.593Z,55.33
2022-08-10T22:48:51.646Z,55.04
2022-08-10T22:51:23.524Z,55.41
2022-08-10T22:54:30.481Z,55.62
2022-08-10T22:57:21.942Z,55.66
2022-08-10T22:59:50.004Z,55.75
2022-08-10T23:02:33.808Z,55.90
2022-08-10T23:05:06.673Z,56.13
2022-08-10T23:07:36.936Z,56.17
2022-08-10T23:10:13.099Z,56.74
2022-08-10T23:12:48.192Z,56.60
2022-08-10T23:15:44.030Z,56.92
2022-08-10T23:18:34.668Z,56.88
2022-08-10T23:21:02.515Z,56.73
2022-08-10T23:23:40.141Z,56.87
2022-08-10T23:26:09.036Z,56.86
2022-08-10T23:28:58.891Z,57.14
2022-08-10T23:32:01.073Z,57.32
2022-08-10T23:34:22.987Z,57.58
2022-08-10T23:36:51.984Z,57.74
2022-08-10T23:39:25.871Z,57.90
2022-08-10T23:42:06.357Z,57.95
2022-08-10T23:44:37.877Z,58.15
2022-08-10T23:47:05.601Z,58.21
2022-08-10T23:49:37.425Z,58.29
2022-08-10T23:52:10.133Z,57.72
2022-08-10T23:54:44.752Z,58.03
2022-08-10T23:57:16.349Z,58.35
2022-08-10T23:59:48.822Z,58.44
